ABB Quick Ratio 2006-2018 | ABB

Historical quick ratio values for ABB (ABB) over the last 10 years.
ABB Quick Ratio Historical Data
Date Current Assets - Inventory Current Liabilities Quick Ratio
2018-09-30 $15.88B $18.56B 0.86
2018-06-30 $16.41B $19.39B 0.85
2018-03-31 $16.70B $19.37B 0.86
2017-12-31 $16.88B $16.47B 1.03
2017-09-30 $16.29B $15.81B 1.03
2017-06-30 $17.14B $15.21B 1.13
2017-03-31 $17.48B $15.15B 1.15
2016-12-31 $16.71B $15.15B 1.10
2016-09-30 $17.89B $16.18B 1.11
2016-06-30 $18.43B $18.06B 1.02
2016-03-31 $17.98B $15.77B 1.14
2015-12-31 $18.00B $15.84B 1.14
2015-09-30 $17.66B $15.03B 1.18
2015-06-30 $18.14B $16.05B 1.13
2015-03-31 $18.65B $14.66B 1.27
2014-12-31 $19.61B $15.58B 1.26
2014-09-30 $19.85B $16.38B 1.21
2014-06-30 $20.17B $16.89B 1.20
2014-03-31 $21.31B $16.99B 1.25
2013-12-31 $20.42B $16.68B 1.23
2013-09-30 $19.29B $16.73B 1.15
2013-06-30 $18.72B $16.36B 1.14
2013-03-31 $20.68B $17.49B 1.18
2012-12-31 $21.82B $18.97B 1.15
2012-09-30 $18.96B $17.78B 1.07
2012-06-30 $17.99B $17.66B 1.02
2012-03-31 $20.40B $16.54B 1.23
2011-12-31 $18.05B $16.56B 1.09
2011-09-30 $18.18B $18.36B 0.99
2011-06-30 $17.91B $17.81B 1.01
2011-03-31 $17.00B $17.19B 0.99
2010-12-31 $20.47B $16.74B 1.22
2010-09-30 $19.22B $15.07B 1.28
2010-06-30 $18.97B $13.84B 1.37
2010-03-31 $20.33B $14.14B 1.44
2009-12-31 $20.68B $14.58B 1.42
2009-09-30 $19.60B $14.78B 1.33
2009-06-30 $19.27B $15.16B 1.27
2009-03-31 $18.01B $14.82B 1.22
2008-12-31 $18.93B $15.90B 1.19
2008-09-30 $18.32B $15.38B 1.19
2008-06-30 $20.12B $15.80B 1.27
2008-03-31 $19.68B $15.70B 1.25
2007-12-31 $18.28B $14.48B 1.26
2007-09-30 $16.79B $14.56B 1.15
2007-06-30 $15.14B $13.47B 1.12
2007-03-31 $14.30B $12.98B 1.10
2006-12-31 $13.75B $12.49B 1.10
2006-09-30 $12.00B $11.62B 1.03
2006-06-30 $11.52B $11.40B 1.01
2006-03-31 $11.48B $11.89B 0.97
2005-12-31 $11.17B $11.72B 0.95
2005-09-30 $11.77B $12.37B 0.95
2005-06-30 $11.70B $12.25B 0.96
2005-03-31 $11.43B $12.08B 0.95
Sector Industry Market Cap Revenue
Industrial Products Electrical Machinery $42.387B $34.312B
ABB Ltd, headquartered in Zurich, Switzerland, is engaged in providing power and automation technologies for its utility and industrial customers. The Company provides a range of products, systems, solutions and services that are designed to improve power grid reliability, increase industrial productivity and enhance energy efficiency. ABB is focused on power transmission, distribution and power-plant automation and serves electric, gas and water utilities, as well as industrial and commercial customers. Its Power Products division manufactures three categories of products: High-voltage Products, Medium-voltage Products and Transformers. The key technologies include high- and medium-voltage switchgear, circuit breakers for various current and voltage levels, power and distribution transformers, as well as sensors and products to automate and control electrical and other utility networks. ABB Ltd is structured into four regions: Europe, the Americas, Asia and the Middle East and Africa (MEA).
Stock Name Country Market Cap PE Ratio
Emerson Electric (EMR) United States $41.985B 20.89
Eaton (ETN) Ireland $34.122B 14.63
A O Smith (AOS) United States $8.776B 19.78
Regal Beloit (RBC) United States $3.622B 13.95
Enersys (ENS) United States $3.307B 16.17
Rexnord (RXN) United States $2.934B 15.91
II-VI (IIVI) United States $2.470B 22.39
Franklin Electric (FELE) United States $2.375B 23.52
ESCO Technologies (ESE) United States $1.787B 23.78
SPX FLOW (FLOW) United States $1.488B 14.94
AZZ (AZZ) United States $1.225B 26.53
Powell Industries (POWL) United States $0.407B 0.00
Plug Power (PLUG) United States $0.378B 0.00
Energous (WATT) United States $0.230B 0.00
Capstone Turbine (CPST) United States $0.058B 0.00
Pioneer Power Solutions (PPSI) United States $0.046B 9.17
CUI Global (CUI) United States $0.039B 0.00
American Electric Technologies (AETI) United States $0.008B 0.00
Ideal Power (IPWR) United States $0.007B 0.00